Time;durP1;ratioP1;P1;durP2;ratioP2;P2;SDS_P1;SDS_P2;PMS_P1;PMS_P2;Temp;Humidity;BMP_temperature;BMP_pressure;BME280_temperature;BME280_humidity;BME280_pressure;Samples;Min_cycle;Max_cycle;Signal;HPM_P1;HPM_P2
2021/06/25 00:00:12;;;;;;;0.82;0.82;;;20.80;99.90;;;;;;5111161;28;20278;-67
2021/06/25 00:02:39;;;;;;;1.17;0.50;;;20.80;99.90;;;;;;5111781;28;20607;-68
2021/06/25 00:05:08;;;;;;;0.80;0.80;;;20.80;99.90;;;;;;5110793;28;20232;-69
2021/06/25 00:07:35;;;;;;;0.70;0.70;;;20.80;99.90;;;;;;5114229;27;20219;-68
2021/06/25 00:10:02;;;;;;;0.60;0.60;;;20.80;99.90;;;;;;5113387;27;20196;-69
2021/06/25 00:12:31;;;;;;;1.85;0.70;;;20.80;99.90;;;;;;5111720;27;20241;-68
2021/06/25 00:14:58;;;;;;;0.60;0.60;;;20.70;99.90;;;;;;5111318;27;20296;-68
2021/06/25 00:17:25;;;;;;;0.85;0.60;;;20.70;99.90;;;;;;5111894;28;20286;-68
2021/06/25 00:19:52;;;;;;;0.60;0.60;;;20.70;99.90;;;;;;5111754;28;20535;-67
2021/06/25 00:22:19;;;;;;;0.65;0.65;;;20.70;99.90;;;;;;5115746;27;20199;-67
2021/06/25 00:24:46;;;;;;;0.60;0.60;;;20.70;99.90;;;;;;5115124;27;20200;-68
2021/06/25 00:27:13;;;;;;;0.50;0.50;;;20.70;99.90;;;;;;5111578;27;20285;-67
2021/06/25 00:29:41;;;;;;;0.52;0.52;;;20.70;99.90;;;;;;5118783;27;20310;-67
2021/06/25 00:32:09;;;;;;;0.52;0.52;;;20.60;99.90;;;;;;5114526;27;20231;-67
2021/06/25 00:34:36;;;;;;;0.65;0.65;;;20.60;99.90;;;;;;5118168;27;20303;-68
2021/06/25 00:37:03;;;;;;;0.77;0.52;;;20.60;99.90;;;;;;5118627;27;20238;-67
2021/06/25 00:39:30;;;;;;;0.60;0.60;;;20.60;99.90;;;;;;5119470;27;20741;-68
2021/06/25 00:41:57;;;;;;;0.57;0.57;;;20.60;99.90;;;;;;5135067;27;20597;-68
2021/06/25 00:44:24;;;;;;;0.50;0.50;;;20.60;99.90;;;;;;5122740;27;20205;-69
2021/06/25 00:46:53;;;;;;;0.50;0.50;;;20.60;99.90;;;;;;5120772;27;20608;-68
2021/06/25 00:49:21;;;;;;;0.50;0.50;;;20.60;99.90;;;;;;5109311;27;20188;-67
2021/06/25 00:51:48;;;;;;;0.60;0.60;;;20.50;99.90;;;;;;5119404;27;20613;-68
2021/06/25 00:54:16;;;;;;;0.63;0.63;;;20.50;99.90;;;;;;5111468;28;20204;-68
2021/06/25 00:56:43;;;;;;;0.52;0.52;;;20.50;99.90;;;;;;5111724;28;20211;-67
2021/06/25 00:59:10;;;;;;;0.50;0.50;;;20.50;99.90;;;;;;5110176;28;20234;-67
2021/06/25 01:01:37;;;;;;;0.63;0.63;;;20.40;99.90;;;;;;5111259;27;20663;-68
2021/06/25 01:04:09;;;;;;;0.55;0.50;;;20.40;99.90;;;;;;5112306;27;20219;-67
2021/06/25 01:06:37;;;;;;;0.35;0.35;;;20.40;99.90;;;;;;5110525;27;20298;-68
2021/06/25 01:09:06;;;;;;;0.50;0.50;;;20.30;99.90;;;;;;5112087;27;20524;-68
2021/06/25 01:11:33;;;;;;;0.43;0.43;;;20.30;99.90;;;;;;5130036;27;20710;-68
2021/06/25 01:14:00;;;;;;;0.43;0.43;;;20.30;99.90;;;;;;5111179;27;20211;-67
2021/06/25 01:16:27;;;;;;;0.50;0.50;;;20.30;99.90;;;;;;5115434;27;20723;-67
2021/06/25 01:18:54;;;;;;;0.50;0.50;;;20.20;99.90;;;;;;5113657;27;20663;-67
2021/06/25 01:21:23;;;;;;;0.35;0.35;;;20.20;99.90;;;;;;5116658;27;20191;-67
2021/06/25 01:23:50;;;;;;;0.60;0.60;;;20.20;99.90;;;;;;5114521;27;20274;-67
2021/06/25 01:26:17;;;;;;;0.50;0.50;;;20.20;99.90;;;;;;5117588;27;20973;-68
2021/06/25 01:28:45;;;;;;;0.60;0.60;;;20.20;99.90;;;;;;5109496;28;20916;-68
2021/06/25 01:31:12;;;;;;;0.63;0.63;;;20.10;99.90;;;;;;5132979;27;20199;-67
2021/06/25 01:33:39;;;;;;;0.60;0.60;;;20.10;99.90;;;;;;5114428;27;20200;-68
2021/06/25 01:36:08;;;;;;;0.52;0.52;;;20.10;99.90;;;;;;5119163;27;20704;-67
2021/06/25 01:38:37;;;;;;;0.55;0.55;;;20.10;99.90;;;;;;5106621;27;20296;-67
2021/06/25 01:41:05;;;;;;;0.32;0.32;;;20.10;99.90;;;;;;5118022;27;20210;-67
2021/06/25 01:43:33;;;;;;;0.60;0.60;;;20.10;99.90;;;;;;5114491;27;20223;-68
2021/06/25 01:46:01;;;;;;;0.43;0.43;;;20.10;99.90;;;;;;5110491;27;20659;-67
2021/06/25 01:48:28;;;;;;;0.50;0.50;;;20.10;99.90;;;;;;5116317;27;20233;-67
2021/06/25 01:50:55;;;;;;;0.47;0.47;;;20.10;99.90;;;;;;5116547;27;20203;-68
2021/06/25 01:53:24;;;;;;;0.47;0.47;;;20.10;99.90;;;;;;5109615;28;20191;-68
2021/06/25 01:55:52;;;;;;;0.40;0.40;;;20.10;99.90;;;;;;5108739;28;20206;-68
2021/06/25 01:58:21;;;;;;;0.40;0.40;;;20.10;99.90;;;;;;5109291;28;20196;-67
2021/06/25 02:00:57;;;;;;;0.80;0.60;;;20.10;99.90;;;;;;5109181;28;20284;-68
2021/06/25 02:03:24;;;;;;;0.55;0.55;;;20.10;99.90;;;;;;5107671;28;20207;-68
2021/06/25 02:05:51;;;;;;;0.43;0.43;;;20.10;99.90;;;;;;5110562;28;20223;-68
2021/06/25 02:08:18;;;;;;;0.47;0.45;;;20.00;99.90;;;;;;5109309;27;20214;-67
2021/06/25 02:10:45;;;;;;;0.60;0.60;;;20.10;99.90;;;;;;5108640;28;20200;-68
2021/06/25 02:13:14;;;;;;;0.70;0.70;;;20.10;99.90;;;;;;5108276;28;20227;-68
2021/06/25 02:15:41;;;;;;;0.47;0.47;;;20.10;99.90;;;;;;5109063;28;20253;-67
2021/06/25 02:18:08;;;;;;;0.50;0.50;;;20.10;99.90;;;;;;5112654;27;20270;-67
2021/06/25 02:20:35;;;;;;;0.50;0.50;;;20.00;99.90;;;;;;5113727;27;20304;-67
2021/06/25 02:23:02;;;;;;;0.70;0.70;;;20.10;99.90;;;;;;5118316;27;20205;-67
2021/06/25 02:25:29;;;;;;;0.60;0.60;;;20.00;99.90;;;;;;5115058;27;20206;-68
2021/06/25 02:27:57;;;;;;;0.50;0.50;;;20.00;99.90;;;;;;5119690;27;20295;-68
2021/06/25 02:30:25;;;;;;;0.50;0.50;;;20.00;99.90;;;;;;5114190;27;20297;-67
2021/06/25 02:32:52;;;;;;;0.60;0.60;;;20.00;99.90;;;;;;5110278;27;20218;-67
2021/06/25 02:35:20;;;;;;;1.40;0.50;;;20.00;99.90;;;;;;5118698;27;20192;-67
2021/06/25 02:37:47;;;;;;;0.70;0.70;;;20.00;99.90;;;;;;5122570;27;20197;-68
2021/06/25 02:40:15;;;;;;;0.60;0.60;;;20.00;99.90;;;;;;5118456;27;20230;-68
2021/06/25 02:42:43;;;;;;;0.60;0.60;;;20.00;99.90;;;;;;5118882;27;20279;-69
2021/06/25 02:45:11;;;;;;;0.40;0.40;;;20.00;99.90;;;;;;5107629;28;20227;-68
2021/06/25 02:47:39;;;;;;;1.10;0.63;;;20.00;99.90;;;;;;5117245;27;20219;-67
2021/06/25 02:50:09;;;;;;;0.60;0.60;;;20.00;99.90;;;;;;5110517;28;20274;-67
2021/06/25 02:52:37;;;;;;;0.60;0.60;;;20.00;99.90;;;;;;5107214;27;20192;-68
2021/06/25 02:55:05;;;;;;;0.70;0.70;;;20.00;99.90;;;;;;5108553;28;20244;-69
2021/06/25 02:57:33;;;;;;;0.60;0.60;;;20.00;99.90;;;;;;5128301;27;20243;-68
2021/06/25 03:00:00;;;;;;;0.70;0.70;;;20.00;99.90;;;;;;5113495;28;20547;-68
2021/06/25 03:02:27;;;;;;;0.80;0.80;;;20.00;99.90;;;;;;5109067;28;20682;-68
2021/06/25 03:04:56;;;;;;;0.80;0.80;;;20.10;99.90;;;;;;5113016;28;20608;-68
2021/06/25 03:07:23;;;;;;;1.00;1.00;;;20.10;99.90;;;;;;5113704;27;20551;-68
2021/06/25 03:09:50;;;;;;;0.68;0.68;;;20.10;99.90;;;;;;5116381;27;20306;-67
2021/06/25 03:12:17;;;;;;;0.68;0.68;;;20.10;99.90;;;;;;5113086;27;20238;-68
2021/06/25 03:14:44;;;;;;;0.80;0.80;;;20.00;99.90;;;;;;5118185;27;20230;-68
2021/06/25 03:17:11;;;;;;;0.98;0.90;;;20.10;99.90;;;;;;5114921;27;20203;-68
2021/06/25 03:19:38;;;;;;;0.80;0.80;;;20.10;99.90;;;;;;5120966;27;20183;-67
2021/06/25 03:22:07;;;;;;;0.70;0.70;;;20.10;99.90;;;;;;5111591;27;20256;-68
2021/06/25 03:24:34;;;;;;;0.90;0.90;;;20.10;99.90;;;;;;5120835;27;20199;-68
2021/06/25 03:27:01;;;;;;;0.80;0.80;;;20.10;99.90;;;;;;5118640;27;20211;-68
2021/06/25 03:29:28;;;;;;;0.93;0.93;;;20.10;99.90;;;;;;5123480;27;20311;-68
2021/06/25 03:31:55;;;;;;;0.80;0.80;;;19.90;99.90;;;;;;5118220;27;20299;-68
2021/06/25 03:34:22;;;;;;;0.80;0.80;;;20.10;99.90;;;;;;5124351;27;20288;-69
2021/06/25 03:36:49;;;;;;;1.15;1.00;;;20.10;99.90;;;;;;5120651;27;20278;-67
2021/06/25 03:39:18;;;;;;;0.95;0.95;;;20.10;99.90;;;;;;5123697;27;20543;-68
2021/06/25 03:41:45;;;;;;;0.75;0.75;;;20.10;99.90;;;;;;5121430;27;20206;-68
2021/06/25 03:44:12;;;;;;;0.65;0.65;;;20.10;99.90;;;;;;5125928;27;20203;-68
2021/06/25 03:46:39;;;;;;;0.60;0.60;;;20.10;99.90;;;;;;5122089;27;20207;-68
2021/06/25 03:49:07;;;;;;;0.80;0.80;;;20.10;99.90;;;;;;5127598;27;20238;-68
2021/06/25 03:51:34;;;;;;;0.95;0.80;;;20.20;99.90;;;;;;5120239;27;20269;-67
2021/06/25 03:54:03;;;;;;;1.17;0.70;;;20.20;99.90;;;;;;5110681;28;20212;-67
2021/06/25 03:56:31;;;;;;;1.30;1.20;;;20.20;99.90;;;;;;5112690;28;20683;-68
2021/06/25 03:58:58;;;;;;;1.10;1.00;;;20.20;99.90;;;;;;5111952;28;20281;-68
2021/06/25 04:01:25;;;;;;;0.90;0.90;;;20.20;99.90;;;;;;5111597;28;20580;-68
2021/06/25 04:03:52;;;;;;;2.15;0.93;;;20.30;99.90;;;;;;5111226;28;20212;-69
2021/06/25 04:06:19;;;;;;;0.82;0.82;;;20.30;99.90;;;;;;5112344;28;20212;-68
2021/06/25 04:08:48;;;;;;;1.20;1.10;;;20.40;99.90;;;;;;5114604;27;20239;-67
2021/06/25 04:11:17;;;;;;;1.13;1.13;;;20.40;99.90;;;;;;5113855;27;20281;-68
2021/06/25 04:13:46;;;;;;;1.00;1.00;;;20.40;99.90;;;;;;5114527;27;20236;-68
2021/06/25 04:16:13;;;;;;;1.45;1.00;;;20.40;99.90;;;;;;5111656;28;20188;-68
2021/06/25 04:18:40;;;;;;;1.10;1.00;;;20.50;99.90;;;;;;5110871;28;20188;-68
2021/06/25 04:21:07;;;;;;;0.90;0.90;;;20.50;99.90;;;;;;5112114;28;20199;-68
2021/06/25 04:23:35;;;;;;;1.23;1.20;;;20.60;99.90;;;;;;5111858;28;20543;-69
2021/06/25 04:26:02;;;;;;;1.00;1.00;;;20.60;99.90;;;;;;5115931;27;20227;-68
2021/06/25 04:28:29;;;;;;;0.90;0.90;;;20.70;99.90;;;;;;5119620;27;20208;-68
2021/06/25 04:30:58;;;;;;;0.90;0.90;;;20.70;99.90;;;;;;5116807;27;20745;-68
2021/06/25 04:33:25;;;;;;;1.20;1.20;;;20.70;99.90;;;;;;5110184;27;20295;-68
2021/06/25 04:35:54;;;;;;;1.05;1.05;;;20.80;99.90;;;;;;5110990;28;20310;-68
2021/06/25 04:38:21;;;;;;;1.10;1.10;;;20.90;99.90;;;;;;5107751;28;20192;-68
2021/06/25 04:40:49;;;;;;;1.48;1.38;;;20.90;99.90;;;;;;5112245;28;20192;-68
2021/06/25 04:43:16;;;;;;;1.70;1.40;;;21.00;99.90;;;;;;5109845;28;20219;-68
2021/06/25 04:45:45;;;;;;;1.00;1.00;;;21.10;99.90;;;;;;5119869;27;20596;-68
2021/06/25 04:48:15;;;;;;;1.10;1.08;;;21.20;99.90;;;;;;5111611;27;20366;-68
2021/06/25 04:50:43;;;;;;;1.35;1.25;;;21.20;99.90;;;;;;5111653;27;20211;-68
2021/06/25 04:53:10;;;;;;;1.58;1.48;;;21.30;99.90;;;;;;5096778;28;20718;-68
2021/06/25 04:55:45;;;;;;;1.48;1.38;;;21.40;99.90;;;;;;5111865;28;20220;-68
2021/06/25 04:58:13;;;;;;;1.48;1.30;;;21.50;99.90;;;;;;5110346;28;20215;-68
2021/06/25 05:00:41;;;;;;;1.27;1.20;;;21.50;99.90;;;;;;5109464;28;20358;-67
2021/06/25 05:03:09;;;;;;;1.30;1.20;;;21.50;99.90;;;;;;5125267;27;20299;-68
2021/06/25 05:05:40;;;;;;;1.65;1.55;;;21.60;99.90;;;;;;5111450;27;20218;-68
2021/06/25 05:08:07;;;;;;;2.50;1.60;;;21.60;99.90;;;;;;5113144;27;20249;-68
2021/06/25 05:10:35;;;;;;;1.20;1.20;;;21.70;99.90;;;;;;5113769;27;20204;-68
2021/06/25 05:13:02;;;;;;;1.73;1.33;;;21.70;99.90;;;;;;5111595;27;20262;-68
2021/06/25 05:15:29;;;;;;;1.40;1.23;;;21.80;99.90;;;;;;5112690;27;20707;-68
2021/06/25 05:17:56;;;;;;;1.83;1.60;;;21.70;99.90;;;;;;5115566;27;20187;-68
2021/06/25 05:20:24;;;;;;;2.55;1.75;;;21.80;99.90;;;;;;5111476;27;20599;-68
2021/06/25 05:22:52;;;;;;;1.60;1.50;;;21.80;99.90;;;;;;5110445;28;20227;-69
2021/06/25 05:25:19;;;;;;;1.50;1.40;;;21.90;99.90;;;;;;5107665;27;20219;-68
2021/06/25 05:27:46;;;;;;;1.90;1.77;;;22.00;99.90;;;;;;5115024;27;20238;-68
2021/06/25 05:30:15;;;;;;;1.52;1.42;;;22.00;99.90;;;;;;5115106;27;20667;-68
2021/06/25 05:32:42;;;;;;;1.63;1.50;;;22.10;99.90;;;;;;5122022;27;20236;-68
2021/06/25 05:35:10;;;;;;;1.60;1.50;;;22.20;99.90;;;;;;5117640;27;20234;-68
2021/06/25 05:37:37;;;;;;;1.80;1.70;;;22.20;99.90;;;;;;5123030;27;20199;-68
2021/06/25 05:40:07;;;;;;;1.67;1.58;;;22.30;99.90;;;;;;5111326;28;20195;-69
2021/06/25 05:42:35;;;;;;;1.55;1.45;;;22.40;99.90;;;;;;5107445;27;20214;-68
2021/06/25 05:45:02;;;;;;;2.47;1.60;;;22.40;99.90;;;;;;5115659;27;20192;-68
2021/06/25 05:47:29;;;;;;;1.23;1.23;;;22.50;99.90;;;;;;5109919;28;20310;-68
2021/06/25 05:49:56;;;;;;;1.30;1.30;;;22.60;99.90;;;;;;5118907;27;20238;-68
2021/06/25 05:52:23;;;;;;;1.08;1.08;;;22.70;99.90;;;;;;5110842;27;20314;-68
2021/06/25 05:54:50;;;;;;;2.08;1.40;;;22.90;99.90;;;;;;5104191;28;20293;-68
2021/06/25 05:57:18;;;;;;;1.30;1.20;;;23.00;99.90;;;;;;5108239;28;20679;-67
2021/06/25 05:59:45;;;;;;;1.63;1.52;;;23.20;99.90;;;;;;5110004;28;20283;-69
2021/06/25 06:02:12;;;;;;;1.60;1.50;;;23.30;99.90;;;;;;5109207;28;20643;-68
2021/06/25 06:04:39;;;;;;;1.70;1.40;;;23.40;99.90;;;;;;5109162;28;20656;-69
2021/06/25 06:07:10;;;;;;;1.80;1.70;;;23.60;99.90;;;;;;5109774;28;20200;-67
2021/06/25 06:09:40;;;;;;;1.83;1.40;;;23.70;99.90;;;;;;5109280;28;20311;-67
2021/06/25 06:12:10;;;;;;;1.60;1.50;;;23.80;99.90;;;;;;5108754;28;20239;-68
2021/06/25 06:14:39;;;;;;;1.33;1.23;;;23.90;99.90;;;;;;5107733;28;20204;-68
2021/06/25 06:17:08;;;;;;;4.55;1.25;;;24.40;99.90;;;;;;5107960;28;20269;-68
2021/06/25 06:19:43;;;;;;;1.75;1.48;;;25.50;99.90;;;;;;5108673;28;20188;-68
2021/06/25 06:33:14;;;;;;;1.00;1.00;;;33.50;83.80;;;;;;5107796;28;20668;-68
2021/06/25 06:35:42;;;;;;;1.58;1.40;;;34.10;78.20;;;;;;5102991;28;20248;-67
2021/06/25 06:38:09;;;;;;;1.60;1.50;;;34.30;76.00;;;;;;5092025;27;20307;-67
2021/06/25 06:40:36;;;;;;;1.83;1.73;;;34.20;73.70;;;;;;5099446;28;20243;-66
2021/06/25 06:43:04;;;;;;;1.50;1.40;;;34.10;72.50;;;;;;5105648;27;20208;-67
2021/06/25 06:45:32;;;;;;;1.50;1.40;;;34.00;72.50;;;;;;5106773;27;20195;-67
2021/06/25 06:47:59;;;;;;;1.60;1.50;;;34.20;70.50;;;;;;5109208;27;20509;-67
2021/06/25 06:50:26;;;;;;;1.45;1.35;;;33.90;69.60;;;;;;5097048;28;20684;-67
2021/06/25 06:52:53;;;;;;;1.23;1.23;;;33.40;69.20;;;;;;5099795;28;20249;-68
2021/06/25 06:55:22;;;;;;;1.38;1.38;;;33.00;69.50;;;;;;5101616;28;20195;-67
2021/06/25 06:57:49;;;;;;;1.27;1.27;;;32.40;70.00;;;;;;5105157;28;20388;-67
2021/06/25 07:00:18;;;;;;;8.63;2.85;;;32.30;70.40;;;;;;5102538;28;20525;-67
2021/06/25 07:02:46;;;;;;;60.50;15.45;;;31.90;69.80;;;;;;5102841;28;20207;-67
2021/06/25 07:05:15;;;;;;;38.22;12.05;;;31.50;69.50;;;;;;5107056;28;20681;-67
2021/06/25 07:07:43;;;;;;;21.13;8.23;;;31.00;70.80;;;;;;5106696;28;20772;-67
2021/06/25 07:10:11;;;;;;;46.65;14.15;;;30.60;71.80;;;;;;5104998;28;20926;-67
2021/06/25 07:12:39;;;;;;;46.03;15.98;;;30.20;71.90;;;;;;5103623;28;20247;-68
2021/06/25 07:15:07;;;;;;;26.67;10.23;;;29.90;71.80;;;;;;5102673;28;20253;-67
2021/06/25 07:17:34;;;;;;;21.00;8.73;;;29.70;72.40;;;;;;5104258;28;20216;-68
2021/06/25 07:20:04;;;;;;;14.85;6.45;;;29.60;72.80;;;;;;5104107;28;20219;-68
2021/06/25 07:22:31;;;;;;;16.63;6.68;;;29.30;73.20;;;;;;5105908;28;20223;-67
2021/06/25 07:24:58;;;;;;;12.07;5.80;;;29.20;73.50;;;;;;5105040;28;20247;-68
2021/06/25 07:27:25;;;;;;;6.57;4.25;;;29.00;73.90;;;;;;5104465;28;20199;-66
2021/06/25 07:29:52;;;;;;;4.00;2.90;;;28.90;74.40;;;;;;5104718;28;20250;-67
2021/06/25 07:32:19;;;;;;;4.68;2.88;;;28.80;74.60;;;;;;5105033;28;20220;-66
2021/06/25 07:34:46;;;;;;;3.53;2.55;;;28.70;74.70;;;;;;5105400;28;20488;-67
2021/06/25 07:37:14;;;;;;;8.52;3.38;;;28.70;74.70;;;;;;5106178;28;20200;-67
2021/06/25 07:39:41;;;;;;;3.97;2.70;;;28.80;74.40;;;;;;5103612;28;20192;-67
2021/06/25 07:42:11;;;;;;;6.10;3.28;;;28.90;74.50;;;;;;5104639;28;20233;-67
2021/06/25 07:44:38;;;;;;;6.22;3.08;;;29.00;74.50;;;;;;5101820;28;20248;-65
2021/06/25 07:47:05;;;;;;;5.18;2.40;;;29.20;74.30;;;;;;5101721;28;20224;-68
2021/06/25 07:49:32;;;;;;;3.65;2.17;;;29.40;74.00;;;;;;5104479;28;20230;-66
2021/06/25 07:51:59;;;;;;;3.70;2.47;;;29.50;73.60;;;;;;5056085;22;20732;-67
2021/06/25 07:54:28;;;;;;;2.45;2.08;;;29.50;73.40;;;;;;5084082;28;20729;-67
2021/06/25 07:56:55;;;;;;;2.42;2.22;;;29.50;73.50;;;;;;5056724;28;20546;-68
2021/06/25 07:59:22;;;;;;;1.67;1.58;;;29.50;73.30;;;;;;5081949;28;20280;-68
2021/06/25 08:01:49;;;;;;;1.98;1.88;;;29.60;73.10;;;;;;5072683;28;20937;-67
2021/06/25 08:04:16;;;;;;;1.42;1.30;;;29.50;72.70;;;;;;5078992;28;20224;-67
2021/06/25 08:06:43;;;;;;;2.35;1.50;;;29.40;72.60;;;;;;5058130;28;20205;-67
2021/06/25 08:09:09;;;;;;;1.80;1.70;;;29.40;72.70;;;;;;5083257;28;20283;-67
2021/06/25 08:11:38;;;;;;;1.40;1.30;;;29.40;72.60;;;;;;5075015;28;20197;-67
2021/06/25 08:14:06;;;;;;;1.58;1.40;;;29.40;72.50;;;;;;5071228;28;20220;-67
2021/06/25 08:16:34;;;;;;;2.17;1.60;;;29.60;72.50;;;;;;5075399;28;20284;-67
2021/06/25 08:19:01;;;;;;;2.58;1.60;;;29.70;72.40;;;;;;5077425;28;20267;-66
2021/06/25 08:21:29;;;;;;;3.75;2.08;;;29.80;72.10;;;;;;5078155;28;20305;-67
2021/06/25 08:23:58;;;;;;;3.17;1.75;;;29.90;71.20;;;;;;5083296;28;20283;-68
2021/06/25 08:26:25;;;;;;;2.03;1.90;;;30.00;70.90;;;;;;5081028;28;20569;-67
2021/06/25 08:28:54;;;;;;;1.88;1.55;;;30.10;71.00;;;;;;5062777;28;20197;-67
2021/06/25 08:31:21;;;;;;;2.22;1.48;;;30.10;70.80;;;;;;5069355;28;20208;-67
2021/06/25 08:33:48;;;;;;;1.60;1.60;;;30.20;70.70;;;;;;5070536;28;20259;-67
2021/06/25 08:36:15;;;;;;;1.92;1.83;;;30.40;70.80;;;;;;5063987;28;20215;-67
2021/06/25 08:38:42;;;;;;;1.90;1.80;;;30.50;70.30;;;;;;5076958;28;20223;-67
2021/06/25 08:41:09;;;;;;;1.70;1.60;;;30.60;69.80;;;;;;5078013;28;20216;-67
2021/06/25 08:43:36;;;;;;;2.63;1.45;;;30.80;69.60;;;;;;5069648;28;20209;-67
2021/06/25 08:46:05;;;;;;;1.25;1.25;;;30.90;69.00;;;;;;5080395;28;20209;-67
2021/06/25 08:48:35;;;;;;;1.45;1.40;;;31.00;68.60;;;;;;5073182;28;20201;-67
2021/06/25 08:51:01;;;;;;;1.80;1.70;;;31.10;67.90;;;;;;5069944;28;20671;-67
2021/06/25 08:53:29;;;;;;;1.20;1.20;;;31.10;67.10;;;;;;5081975;28;20208;-67
2021/06/25 08:55:56;;;;;;;2.80;1.45;;;31.10;67.20;;;;;;5073995;28;20530;-68
2021/06/25 08:58:23;;;;;;;2.10;1.13;;;31.20;67.10;;;;;;5081668;28;20193;-67
2021/06/25 09:00:52;;;;;;;1.48;1.40;;;31.20;66.00;;;;;;5063139;28;20661;-65
2021/06/25 09:03:27;;;;;;;1.50;1.40;;;31.20;65.70;;;;;;5070302;28;20216;-65
2021/06/25 09:06:08;;;;;;;1.40;1.40;;;31.10;64.10;;;;;;5078150;28;20198;-64
2021/06/25 09:08:36;;;;;;;1.50;1.40;;;31.00;65.00;;;;;;5079529;28;20280;-65
2021/06/25 09:11:18;;;;;;;1.23;1.23;;;31.00;65.10;;;;;;5072456;28;20216;-65
2021/06/25 09:13:45;;;;;;;1.13;1.13;;;31.10;64.80;;;;;;5072535;28;20470;-65
2021/06/25 09:16:24;;;;;;;1.60;1.50;;;31.20;64.60;;;;;;5076065;28;20199;-64
2021/06/25 09:19:00;;;;;;;1.58;1.48;;;31.10;63.70;;;;;;5075189;28;20197;-65
2021/06/25 09:21:28;;;;;;;2.17;1.55;;;30.90;63.30;;;;;;5076506;28;20192;-65
2021/06/25 09:23:55;;;;;;;1.65;1.55;;;30.70;63.50;;;;;;5082221;28;20197;-66
2021/06/25 09:26:29;;;;;;;2.10;1.35;;;30.40;63.80;;;;;;5055520;28;20295;-64
2021/06/25 09:29:15;;;;;;;1.48;1.27;;;30.20;64.30;;;;;;5058263;28;20497;-65
2021/06/25 09:31:42;;;;;;;1.42;1.15;;;30.00;64.80;;;;;;5076201;28;20217;-65
2021/06/25 09:34:11;;;;;;;1.30;1.20;;;29.90;65.00;;;;;;5078434;28;20193;-65
2021/06/25 09:36:39;;;;;;;2.60;1.10;;;29.60;65.10;;;;;;5059806;28;20622;-66
2021/06/25 09:39:09;;;;;;;0.90;0.90;;;29.40;65.10;;;;;;5070221;28;20223;-65
2021/06/25 09:41:37;;;;;;;0.90;0.90;;;29.30;66.30;;;;;;5067269;28;20569;-65
2021/06/25 09:44:08;;;;;;;1.25;1.23;;;29.10;65.70;;;;;;5075869;28;20192;-65
2021/06/25 09:46:36;;;;;;;1.42;1.33;;;28.90;66.70;;;;;;5071656;28;20214;-66
2021/06/25 09:49:06;;;;;;;1.20;1.10;;;28.80;66.10;;;;;;5067992;28;20299;-68
2021/06/25 09:51:35;;;;;;;1.52;1.20;;;28.80;66.30;;;;;;5070483;28;20297;-68
2021/06/25 09:54:11;;;;;;;1.30;1.20;;;28.70;66.40;;;;;;5059510;28;20553;-69
2021/06/25 09:56:43;;;;;;;2.20;1.30;;;28.60;66.60;;;;;;5081462;28;20214;-69
2021/06/25 09:59:42;;;;;;;1.15;1.15;;;28.60;66.70;;;;;;5067107;28;20640;-68
2021/06/25 10:02:39;;;;;;;3.67;1.70;;;28.60;66.60;;;;;;5070619;28;20202;-68
2021/06/25 10:05:14;;;;;;;1.60;1.50;;;28.40;66.90;;;;;;4989040;28;20318;-68
2021/06/25 10:07:42;;;;;;;1.50;1.40;;;28.20;67.40;;;;;;4989984;28;20306;-67
2021/06/25 10:10:11;;;;;;;3.10;1.80;;;28.10;67.90;;;;;;4981636;28;20310;-67
2021/06/25 10:12:40;;;;;;;2.58;1.83;;;28.00;68.40;;;;;;4987151;28;20419;-67
2021/06/25 10:15:08;;;;;;;3.72;1.90;;;27.80;68.80;;;;;;4997383;28;20299;-67
2021/06/25 10:17:36;;;;;;;2.17;1.67;;;27.60;69.10;;;;;;4988895;28;20203;-68
2021/06/25 10:20:07;;;;;;;3.38;1.58;;;27.50;69.60;;;;;;4992476;28;20282;-68
2021/06/25 10:22:36;;;;;;;2.80;1.70;;;27.50;70.10;;;;;;4995794;28;20207;-67
2021/06/25 10:25:06;;;;;;;1.75;1.65;;;27.40;70.60;;;;;;4996306;28;20207;-67
2021/06/25 10:27:34;;;;;;;5.93;1.60;;;27.20;71.10;;;;;;4988582;28;20223;-67
2021/06/25 10:30:02;;;;;;;1.92;1.80;;;27.10;71.70;;;;;;4978956;28;20219;-67
2021/06/25 10:32:30;;;;;;;3.33;1.83;;;27.00;72.20;;;;;;4985187;28;20512;-65
2021/06/25 10:34:58;;;;;;;2.17;1.60;;;27.00;72.50;;;;;;4990596;28;20290;-67
2021/06/25 10:37:28;;;;;;;3.38;1.58;;;27.10;72.80;;;;;;4967470;28;20281;-67
2021/06/25 10:39:55;;;;;;;1.70;1.60;;;27.10;72.70;;;;;;5049279;28;20296;-67
2021/06/25 10:42:40;;;;;;;1.65;1.55;;;27.10;72.80;;;;;;5075409;28;20263;-67
2021/06/25 10:45:08;;;;;;;1.98;1.77;;;27.00;73.20;;;;;;5058190;28;20201;-66
2021/06/25 10:47:35;;;;;;;1.70;1.60;;;27.00;73.60;;;;;;5074943;28;20188;-67
2021/06/25 10:50:32;;;;;;;2.53;1.45;;;26.80;74.10;;;;;;5070951;28;20193;-65
2021/06/25 10:53:08;;;;;;;1.50;1.40;;;26.70;74.60;;;;;;5080626;28;20258;-66
2021/06/25 10:55:44;;;;;;;1.40;1.40;;;26.70;75.10;;;;;;5074780;28;20196;-66
2021/06/25 10:58:20;;;;;;;1.65;1.52;;;26.70;75.30;;;;;;5075028;28;20230;-67
2021/06/25 11:00:57;;;;;;;1.80;1.70;;;26.60;75.40;;;;;;5078640;28;20200;-66
2021/06/25 11:03:40;;;;;;;1.45;1.45;;;26.60;76.00;;;;;;5077851;28;20196;-67
2021/06/25 11:06:10;;;;;;;1.17;1.17;;;26.50;76.30;;;;;;5053057;28;20255;-67
2021/06/25 11:09:00;;;;;;;1.20;1.20;;;26.40;76.50;;;;;;5072585;28;20691;-66
2021/06/25 11:11:28;;;;;;;1.15;1.05;;;26.40;76.80;;;;;;5071506;28;20227;-66
2021/06/25 11:13:56;;;;;;;3.25;1.13;;;26.40;77.00;;;;;;5078430;28;20210;-67
2021/06/25 11:16:24;;;;;;;1.33;1.23;;;26.50;77.10;;;;;;5073395;28;20266;-66
2021/06/25 11:18:51;;;;;;;1.38;1.20;;;26.60;77.10;;;;;;5067599;28;20258;-67
2021/06/25 11:21:18;;;;;;;1.45;1.35;;;26.80;77.20;;;;;;5078430;28;20196;-66
2021/06/25 11:23:47;;;;;;;1.25;1.25;;;26.90;76.90;;;;;;5074181;28;20196;-66
2021/06/25 11:26:25;;;;;;;1.45;1.35;;;27.10;76.80;;;;;;5056492;28;20675;-67
2021/06/25 11:28:53;;;;;;;1.33;1.23;;;27.30;76.60;;;;;;5079436;28;20276;-67
2021/06/25 11:31:26;;;;;;;1.10;1.10;;;27.50;76.40;;;;;;5075816;28;20216;-67
2021/06/25 11:33:56;;;;;;;1.65;1.42;;;27.60;76.20;;;;;;5074022;28;20197;-66
2021/06/25 11:36:40;;;;;;;1.25;1.25;;;27.60;75.90;;;;;;5077752;28;20278;-66
2021/06/25 11:39:31;;;;;;;2.05;1.80;;;27.80;75.80;;;;;;5072275;28;20399;-66
2021/06/25 11:42:00;;;;;;;1.45;1.35;;;28.00;75.10;;;;;;5076809;28;20676;-67
2021/06/25 11:44:29;;;;;;;2.80;1.58;;;28.00;74.80;;;;;;5074662;28;20242;-66
2021/06/25 11:47:01;;;;;;;3.72;1.70;;;28.10;75.50;;;;;;5076300;28;20211;-66
2021/06/25 11:49:35;;;;;;;3.88;1.67;;;28.10;74.70;;;;;;5075305;28;20229;-65
2021/06/25 11:52:07;;;;;;;1.08;1.08;;;28.00;74.70;;;;;;5078101;28;20899;-67
2021/06/25 11:54:36;;;;;;;2.17;1.35;;;27.90;74.80;;;;;;5076486;28;20228;-66
2021/06/25 11:57:03;;;;;;;1.38;1.20;;;27.90;74.80;;;;;;5077671;28;20968;-66
2021/06/25 11:59:31;;;;;;;2.15;1.17;;;27.80;74.60;;;;;;5079272;28;20224;-65
2021/06/25 12:02:00;;;;;;;1.63;1.52;;;27.80;74.80;;;;;;5081077;28;20194;-66
2021/06/25 12:04:38;;;;;;;1.90;1.50;;;27.70;74.80;;;;;;5073593;28;20216;-67
2021/06/25 12:07:08;;;;;;;1.27;1.17;;;27.40;75.40;;;;;;5071609;28;20243;-67
2021/06/25 12:09:46;;;;;;;1.55;1.45;;;27.30;76.10;;;;;;5080128;28;20854;-66
2021/06/25 12:12:28;;;;;;;1.40;1.30;;;27.10;76.50;;;;;;5074468;28;20306;-69
2021/06/25 12:14:57;;;;;;;1.85;1.50;;;27.00;76.70;;;;;;5083551;28;20232;-69
2021/06/25 12:17:40;;;;;;;1.35;1.25;;;27.00;76.90;;;;;;5053984;28;20615;-69
2021/06/25 12:20:09;;;;;;;2.88;1.23;;;26.90;77.00;;;;;;5052678;28;20511;-69
2021/06/25 12:22:48;;;;;;;1.75;1.23;;;27.00;77.30;;;;;;5055076;28;20611;-69
2021/06/25 12:25:15;;;;;;;5.28;1.48;;;26.90;77.50;;;;;;5079719;28;20304;-69
2021/06/25 12:27:42;;;;;;;3.47;2.10;;;27.00;77.70;;;;;;5072527;28;20210;-69
2021/06/25 12:30:14;;;;;;;2.38;1.80;;;27.00;77.90;;;;;;5083795;28;20448;-69
2021/06/25 12:32:43;;;;;;;1.33;1.25;;;26.90;78.70;;;;;;5057738;28;20220;-69
2021/06/25 12:35:11;;;;;;;1.75;1.65;;;26.80;79.20;;;;;;5075685;28;20749;-69
2021/06/25 12:37:53;;;;;;;3.03;1.90;;;26.70;80.00;;;;;;5074484;28;20279;-68
2021/06/25 12:40:46;;;;;;;1.98;1.50;;;26.70;80.90;;;;;;5082565;28;20196;-68
2021/06/25 12:43:16;;;;;;;1.90;1.67;;;26.60;81.30;;;;;;5061177;28;20209;-69
2021/06/25 12:45:46;;;;;;;3.33;1.65;;;26.60;82.00;;;;;;5069533;28;20205;-69
2021/06/25 12:48:17;;;;;;;2.67;1.75;;;26.70;83.70;;;;;;5077086;28;20302;-68
2021/06/25 12:50:46;;;;;;;1.60;1.50;;;26.70;83.20;;;;;;5076324;28;20466;-69
2021/06/25 12:53:15;;;;;;;2.05;1.42;;;26.80;83.70;;;;;;5074785;28;20660;-69
2021/06/25 12:55:44;;;;;;;2.50;1.55;;;26.70;83.60;;;;;;5082325;28;20205;-69
2021/06/25 12:58:12;;;;;;;1.50;1.40;;;26.70;84.00;;;;;;5071868;28;20193;-69
2021/06/25 13:00:40;;;;;;;1.20;1.20;;;26.60;84.40;;;;;;5074974;28;20201;-68
2021/06/25 13:03:08;;;;;;;1.83;1.67;;;26.50;85.00;;;;;;5078267;28;20203;-69
2021/06/25 13:05:38;;;;;;;2.58;1.50;;;26.40;85.20;;;;;;5071961;28;20251;-69